createdAt,value
2022-09-14T00:01:32.689Z,10.70
2022-09-14T00:04:04.025Z,10.70
2022-09-14T00:06:31.711Z,10.80
2022-09-14T00:09:01.244Z,10.80
2022-09-14T00:11:30.625Z,10.80
2022-09-14T00:13:59.439Z,10.90
2022-09-14T00:16:31.403Z,11.00
2022-09-14T00:19:07.791Z,10.90
2022-09-14T00:21:38.193Z,11.00
2022-09-14T00:24:07.439Z,11.10
2022-09-14T00:26:35.068Z,11.10
2022-09-14T00:29:06.125Z,11.00
2022-09-14T00:31:36.012Z,11.10
2022-09-14T00:34:04.799Z,11.00
2022-09-14T00:36:33.393Z,11.10
2022-09-14T00:39:01.099Z,11.10
2022-09-14T00:41:32.211Z,11.20
2022-09-14T00:44:04.473Z,11.20
2022-09-14T00:46:36.570Z,11.10
2022-09-14T00:49:08.032Z,11.10
2022-09-14T00:51:40.094Z,11.10
2022-09-14T00:54:08.091Z,10.90
2022-09-14T00:56:35.851Z,10.80
2022-09-14T00:59:29.579Z,10.90
2022-09-14T01:01:57.176Z,10.90
2022-09-14T01:04:24.901Z,10.80
2022-09-14T01:07:21.305Z,10.80
2022-09-14T01:10:16.073Z,10.80
2022-09-14T01:12:43.195Z,10.80
2022-09-14T01:15:25.851Z,10.80
2022-09-14T01:18:19.436Z,10.80
2022-09-14T01:21:10.576Z,10.80
2022-09-14T01:23:59.771Z,10.80
2022-09-14T01:26:51.086Z,10.80
2022-09-14T01:29:25.391Z,10.80
2022-09-14T01:32:00.827Z,10.90
2022-09-14T01:34:53.500Z,11.00
2022-09-14T01:37:28.890Z,11.00
2022-09-14T01:40:01.849Z,11.00
2022-09-14T01:42:30.403Z,11.10
2022-09-14T01:45:01.859Z,11.10
2022-09-14T01:47:36.745Z,11.10
2022-09-14T01:50:15.371Z,11.10
2022-09-14T01:52:50.433Z,11.10
2022-09-14T01:55:24.409Z,11.00
2022-09-14T01:57:59.540Z,11.10
2022-09-14T02:00:28.471Z,11.10
2022-09-14T02:03:03.233Z,11.10
2022-09-14T02:05:36.791Z,11.20
2022-09-14T02:08:05.025Z,11.20
2022-09-14T02:10:32.911Z,11.20
2022-09-14T02:13:00.354Z,11.30
2022-09-14T02:15:28.413Z,11.30
2022-09-14T02:17:55.999Z,11.30
2022-09-14T02:20:35.646Z,11.20
2022-09-14T02:23:06.797Z,11.20
2022-09-14T02:25:36.470Z,11.20
2022-09-14T02:28:04.872Z,11.30
2022-09-14T02:30:42.780Z,11.30
2022-09-14T02:33:40.832Z,11.40
2022-09-14T02:36:25.079Z,11.40
2022-09-14T02:39:07.751Z,11.40
2022-09-14T02:41:40.262Z,11.40
2022-09-14T02:44:29.532Z,11.40
2022-09-14T02:47:38.130Z,11.40
2022-09-14T02:50:23.010Z,11.40
2022-09-14T02:53:06.691Z,11.40
2022-09-14T02:55:42.235Z,11.40
2022-09-14T02:58:12.831Z,11.40
2022-09-14T03:00:45.198Z,11.40
2022-09-14T03:03:14.927Z,11.40
2022-09-14T03:05:43.031Z,11.40
2022-09-14T03:08:10.985Z,11.30
2022-09-14T03:10:39.224Z,11.30
2022-09-14T03:13:06.367Z,11.30
2022-09-14T03:15:33.664Z,11.40
2022-09-14T03:18:01.110Z,11.40
2022-09-14T03:20:31.635Z,11.40
2022-09-14T03:23:00.211Z,11.40
2022-09-14T03:25:28.866Z,11.30
2022-09-14T03:27:58.768Z,11.40
2022-09-14T03:30:28.032Z,11.40
2022-09-14T03:32:55.275Z,11.20
2022-09-14T03:35:22.912Z,11.10
2022-09-14T03:37:50.203Z,11.10
2022-09-14T03:40:21.906Z,11.10
2022-09-14T03:42:51.154Z,11.00
2022-09-14T03:45:19.813Z,11.00
2022-09-14T03:47:47.736Z,11.00
2022-09-14T03:50:16.232Z,11.00
2022-09-14T03:52:43.712Z,11.10
2022-09-14T03:55:11.676Z,11.00
2022-09-14T03:57:39.493Z,10.80
2022-09-14T04:00:08.811Z,10.80
2022-09-14T04:02:36.210Z,10.80
2022-09-14T04:05:03.619Z,10.70
2022-09-14T04:07:31.151Z,10.70
2022-09-14T04:09:58.601Z,10.60
2022-09-14T04:12:25.851Z,10.60
2022-09-14T04:14:53.048Z,10.60
2022-09-14T04:17:20.498Z,10.70
2022-09-14T04:19:47.992Z,10.70
2022-09-14T04:22:15.453Z,10.70
2022-09-14T04:24:42.589Z,10.60
2022-09-14T04:27:09.720Z,10.50
2022-09-14T04:29:36.951Z,10.30
2022-09-14T04:32:04.348Z,10.30
2022-09-14T04:34:31.691Z,10.10
2022-09-14T04:36:58.900Z,10.20
2022-09-14T04:39:26.651Z,10.10
2022-09-14T04:41:54.432Z,10.10
2022-09-14T04:44:21.993Z,10.10
2022-09-14T04:46:49.294Z,10.10
2022-09-14T04:49:19.132Z,10.10
2022-09-14T04:51:46.693Z,9.90
2022-09-14T04:54:16.549Z,9.90
2022-09-14T04:56:44.691Z,9.80
2022-09-14T04:59:12.977Z,9.70
2022-09-14T05:01:42.916Z,9.70
2022-09-14T05:04:11.894Z,9.70
2022-09-14T05:06:40.953Z,9.70
2022-09-14T05:09:13.953Z,9.80
2022-09-14T05:11:42.191Z,10.00
2022-09-14T05:14:13.246Z,10.00
2022-09-14T05:16:42.513Z,10.00
2022-09-14T05:19:14.029Z,10.10
2022-09-14T05:21:41.481Z,10.20
2022-09-14T05:24:17.031Z,10.40
2022-09-14T05:26:45.552Z,10.20
2022-09-14T05:29:18.773Z,10.20
2022-09-14T05:31:50.043Z,10.30
2022-09-14T05:34:17.959Z,10.30
2022-09-14T05:36:45.491Z,10.30
2022-09-14T05:39:13.210Z,10.40
2022-09-14T05:41:40.773Z,10.30
2022-09-14T05:44:08.475Z,10.30
2022-09-14T05:46:35.807Z,10.20
2022-09-14T05:49:03.472Z,10.20
2022-09-14T05:51:30.853Z,10.20
2022-09-14T05:53:59.571Z,10.30
2022-09-14T05:56:30.125Z,10.30
2022-09-14T05:58:58.334Z,10.40
2022-09-14T06:01:29.757Z,10.40
2022-09-14T06:03:58.604Z,10.60
2022-09-14T06:06:26.130Z,10.50
2022-09-14T06:08:55.362Z,10.50
2022-09-14T06:11:25.693Z,10.50
2022-09-14T06:13:55.137Z,10.40
2022-09-14T06:16:24.227Z,10.60
2022-09-14T06:18:52.431Z,10.50
2022-09-14T06:21:20.917Z,10.60
2022-09-14T06:23:49.458Z,10.60
2022-09-14T06:26:17.196Z,10.60
2022-09-14T06:28:45.251Z,10.80
2022-09-14T06:31:14.681Z,11.00
2022-09-14T06:33:46.247Z,11.20
2022-09-14T06:36:16.145Z,11.10
2022-09-14T06:38:43.703Z,11.10
2022-09-14T06:41:14.273Z,11.10
2022-09-14T06:43:43.055Z,11.40
2022-09-14T06:46:20.575Z,11.10
2022-09-14T06:48:54.813Z,11.10
2022-09-14T06:51:28.280Z,11.30
2022-09-14T06:54:00.321Z,11.50
2022-09-14T06:56:32.175Z,11.70
2022-09-14T06:58:59.512Z,11.90
2022-09-14T07:01:27.905Z,11.90
2022-09-14T07:03:55.318Z,12.10
2022-09-14T07:06:28.830Z,12.20
2022-09-14T07:08:56.771Z,12.00
2022-09-14T07:11:27.468Z,11.70
2022-09-14T07:13:59.086Z,12.00
2022-09-14T07:16:27.868Z,11.90
2022-09-14T07:18:56.890Z,12.00
2022-09-14T07:21:24.895Z,12.10
2022-09-14T07:23:53.348Z,12.20
2022-09-14T07:26:26.802Z,12.10
2022-09-14T07:28:58.126Z,12.20
2022-09-14T07:31:34.128Z,12.00
2022-09-14T07:34:03.696Z,12.20
2022-09-14T07:36:34.983Z,12.30
2022-09-14T07:39:07.642Z,12.30
2022-09-14T07:41:35.840Z,12.60
2022-09-14T07:44:05.416Z,12.30
2022-09-14T07:46:38.632Z,12.60
2022-09-14T07:49:08.531Z,13.10
2022-09-14T07:51:37.389Z,12.80
2022-09-14T07:54:07.089Z,12.90
2022-09-14T07:56:35.228Z,12.50
2022-09-14T07:59:33.452Z,12.80
2022-09-14T08:01:52.830Z,13.00
2022-09-14T08:04:21.479Z,13.00
2022-09-14T08:06:48.973Z,13.00
2022-09-14T08:09:16.529Z,13.00
2022-09-14T08:11:44.123Z,13.40
2022-09-14T08:14:14.145Z,13.60
2022-09-14T08:16:42.039Z,13.20
2022-09-14T08:19:17.832Z,13.00
2022-09-14T08:21:48.107Z,13.00
2022-09-14T08:24:19.233Z,13.00
2022-09-14T08:26:47.659Z,13.20
2022-09-14T08:29:17.225Z,13.20
2022-09-14T08:31:46.238Z,13.00
2022-09-14T08:34:15.559Z,12.90
2022-09-14T08:36:44.067Z,12.50
2022-09-14T08:39:13.482Z,12.60
2022-09-14T08:41:43.611Z,12.70
2022-09-14T08:44:16.672Z,13.20
2022-09-14T08:47:05.519Z,14.10
2022-09-14T08:49:38.787Z,15.40
2022-09-14T08:52:06.638Z,17.80
2022-09-14T08:54:34.307Z,17.70
2022-09-14T08:57:31.146Z,17.20
2022-09-14T09:00:14.057Z,15.90
2022-09-14T09:02:54.896Z,16.20
2022-09-14T09:05:43.269Z,17.40
2022-09-14T09:08:20.077Z,17.70
2022-09-14T09:10:48.534Z,16.90
2022-09-14T09:13:20.023Z,15.30
2022-09-14T09:15:54.327Z,14.60
2022-09-14T09:18:37.283Z,14.10
2022-09-14T09:21:22.339Z,14.40
2022-09-14T09:23:50.129Z,14.70
2022-09-14T09:26:17.898Z,15.00
2022-09-14T09:28:51.780Z,14.60
2022-09-14T09:31:26.512Z,15.00
2022-09-14T09:33:54.026Z,14.30
2022-09-14T09:36:21.296Z,14.40
2022-09-14T09:38:48.741Z,14.00
2022-09-14T09:41:27.300Z,14.40
2022-09-14T09:44:01.949Z,15.00
2022-09-14T09:46:32.989Z,15.40
2022-09-14T09:49:05.380Z,15.70
2022-09-14T09:51:34.939Z,15.50
2022-09-14T09:54:10.078Z,15.40
2022-09-14T09:56:52.116Z,15.50
2022-09-14T09:59:32.911Z,15.40
2022-09-14T10:02:29.279Z,15.20
2022-09-14T10:05:10.216Z,14.20
2022-09-14T10:07:43.004Z,14.30
2022-09-14T10:10:13.798Z,14.50
2022-09-14T10:12:48.499Z,14.50
2022-09-14T10:15:23.088Z,14.30
2022-09-14T10:18:11.320Z,14.50
2022-09-14T10:20:43.596Z,14.50
2022-09-14T10:23:20.070Z,14.00
2022-09-14T10:25:49.682Z,14.10
2022-09-14T10:28:33.096Z,14.20
2022-09-14T10:31:20.424Z,13.90
2022-09-14T10:33:52.448Z,13.90
2022-09-14T10:36:48.677Z,13.40
2022-09-14T10:39:29.362Z,13.30
2022-09-14T10:42:18.062Z,13.30
2022-09-14T10:45:06.289Z,13.30
2022-09-14T10:47:48.518Z,13.30
2022-09-14T10:50:41.437Z,13.40
2022-09-14T10:53:24.961Z,13.40
2022-09-14T10:56:07.577Z,13.30
2022-09-14T10:58:57.763Z,13.30
2022-09-14T11:01:34.817Z,13.70
2022-09-14T11:04:09.787Z,13.60
2022-09-14T11:06:44.454Z,13.40
2022-09-14T11:09:18.096Z,13.60
2022-09-14T11:12:17.919Z,13.50
2022-09-14T11:15:04.007Z,13.60
2022-09-14T11:17:42.275Z,13.50
2022-09-14T11:20:22.579Z,13.40
2022-09-14T11:23:28.974Z,13.60
2022-09-14T11:26:27.339Z,13.60
2022-09-14T11:29:19.218Z,13.60
2022-09-14T11:32:19.776Z,13.50
2022-09-14T11:35:14.357Z,13.20
2022-09-14T11:37:50.471Z,13.30
2022-09-14T11:40:31.735Z,13.00
2022-09-14T11:43:06.741Z,13.00
2022-09-14T11:45:48.089Z,13.10
2022-09-14T11:48:43.395Z,12.90
2022-09-14T11:51:33.197Z,12.90
2022-09-14T11:54:01.080Z,12.80
2022-09-14T11:56:34.297Z,12.90
2022-09-14T11:59:07.007Z,12.80
2022-09-14T12:01:42.259Z,12.50
2022-09-14T12:04:18.940Z,12.50
2022-09-14T12:06:51.929Z,12.60
2022-09-14T12:09:22.836Z,12.60
2022-09-14T12:11:51.117Z,12.70
2022-09-14T12:14:24.471Z,12.70
2022-09-14T12:17:40.793Z,12.70
2022-09-14T12:20:35.607Z,12.60
2022-09-14T12:23:32.058Z,12.80
2022-09-14T12:26:10.514Z,12.70
2022-09-14T12:28:40.888Z,12.80
2022-09-14T12:31:39.878Z,12.70
2022-09-14T12:34:22.707Z,12.70
2022-09-14T12:36:50.380Z,12.50
2022-09-14T12:39:27.355Z,12.60
2022-09-14T12:41:55.000Z,12.70
2022-09-14T12:44:42.660Z,12.70
2022-09-14T12:47:25.337Z,12.50
2022-09-14T12:50:09.253Z,12.40
2022-09-14T12:52:47.574Z,12.30
2022-09-14T12:55:42.940Z,12.50
2022-09-14T12:58:30.789Z,12.50
2022-09-14T13:01:14.103Z,12.60
2022-09-14T13:03:54.113Z,12.30
2022-09-14T13:06:23.213Z,12.30
2022-09-14T13:08:55.615Z,12.20
2022-09-14T13:11:37.006Z,12.20
2022-09-14T13:14:04.564Z,11.90
2022-09-14T13:16:43.153Z,12.00
2022-09-14T13:19:28.249Z,12.10
2022-09-14T13:21:59.015Z,12.10
2022-09-14T13:24:42.728Z,12.30
2022-09-14T13:27:36.001Z,12.30
2022-09-14T13:30:08.405Z,12.30
2022-09-14T13:32:39.639Z,12.30
2022-09-14T13:35:16.029Z,12.30
2022-09-14T13:37:47.662Z,12.20
2022-09-14T13:40:15.764Z,12.30
2022-09-14T13:42:43.686Z,12.40
2022-09-14T13:45:13.910Z,12.30
2022-09-14T13:47:43.155Z,12.40
2022-09-14T13:50:14.078Z,12.40
2022-09-14T13:53:01.215Z,12.40
2022-09-14T13:55:44.181Z,12.30
2022-09-14T13:58:21.286Z,12.40
2022-09-14T14:00:57.687Z,12.50
2022-09-14T14:03:29.745Z,12.40
2022-09-14T14:05:57.542Z,12.40
2022-09-14T14:08:39.065Z,12.50
2022-09-14T14:11:08.246Z,12.90
2022-09-14T14:13:38.886Z,12.70
2022-09-14T14:16:22.172Z,12.60
2022-09-14T14:18:52.470Z,12.80
2022-09-14T14:21:23.926Z,12.90
2022-09-14T14:24:12.067Z,13.20
2022-09-14T14:26:48.365Z,13.50
2022-09-14T14:29:16.786Z,13.70
2022-09-14T14:31:45.387Z,13.70
2022-09-14T14:34:27.719Z,13.70
2022-09-14T14:36:56.326Z,13.70
2022-09-14T14:39:25.343Z,14.00
2022-09-14T14:41:53.276Z,13.90
2022-09-14T14:44:23.545Z,14.20
2022-09-14T14:46:51.395Z,14.20
2022-09-14T14:49:20.585Z,14.10
2022-09-14T14:51:48.685Z,14.10
2022-09-14T14:54:18.165Z,14.00
2022-09-14T14:56:48.166Z,13.90
2022-09-14T14:59:36.478Z,13.80
2022-09-14T15:02:05.517Z,13.70
2022-09-14T15:04:33.266Z,13.60
2022-09-14T15:07:00.648Z,13.40
2022-09-14T15:09:30.306Z,13.50
2022-09-14T15:11:57.847Z,13.70
2022-09-14T15:14:28.003Z,13.70
2022-09-14T15:17:00.276Z,13.80
2022-09-14T15:19:28.416Z,13.90
2022-09-14T15:22:00.255Z,14.00
2022-09-14T15:24:29.768Z,13.90
2022-09-14T15:26:57.887Z,14.00
2022-09-14T15:29:25.502Z,14.00
2022-09-14T15:31:52.895Z,14.10
2022-09-14T15:34:20.405Z,14.10
2022-09-14T15:36:53.408Z,14.20
2022-09-14T15:39:28.254Z,14.30
2022-09-14T15:41:56.150Z,14.40
2022-09-14T15:44:24.003Z,14.40
2022-09-14T15:46:51.825Z,14.20
2022-09-14T15:49:24.562Z,14.10
2022-09-14T15:51:55.365Z,13.90
2022-09-14T15:54:24.686Z,13.80
2022-09-14T15:56:56.748Z,13.60
2022-09-14T15:59:24.126Z,13.40
2022-09-14T16:01:51.763Z,13.40
2022-09-14T16:04:20.043Z,13.30
2022-09-14T16:06:48.605Z,13.30
2022-09-14T16:09:18.085Z,13.30
2022-09-14T16:11:46.884Z,13.20
2022-09-14T16:14:14.399Z,13.10
2022-09-14T16:16:41.968Z,13.20
2022-09-14T16:19:15.225Z,13.20
2022-09-14T16:21:44.089Z,13.00
2022-09-14T16:24:16.548Z,13.10
2022-09-14T16:26:44.210Z,13.10
2022-09-14T16:29:13.712Z,13.00
2022-09-14T16:31:42.901Z,13.00
2022-09-14T16:34:23.042Z,13.10
2022-09-14T16:36:52.567Z,13.00
2022-09-14T16:39:23.136Z,13.10
2022-09-14T16:41:51.112Z,13.20
2022-09-14T16:44:24.951Z,13.20
2022-09-14T16:46:53.299Z,13.20
2022-09-14T16:49:26.310Z,13.20
2022-09-14T16:51:56.808Z,13.00
2022-09-14T16:54:25.839Z,13.00
2022-09-14T16:56:57.199Z,12.90
2022-09-14T16:59:25.039Z,12.90
2022-09-14T17:01:54.959Z,12.90
2022-09-14T17:04:23.318Z,12.90
2022-09-14T17:06:52.075Z,12.90
2022-09-14T17:09:25.654Z,13.00
2022-09-14T17:11:54.480Z,13.00
2022-09-14T17:14:27.293Z,13.00
2022-09-14T17:16:55.107Z,13.00
2022-09-14T17:19:22.486Z,12.90
2022-09-14T17:21:50.867Z,12.90
2022-09-14T17:24:19.415Z,12.70
2022-09-14T17:26:47.293Z,12.70
2022-09-14T17:29:15.405Z,12.70
2022-09-14T17:31:44.391Z,12.70
2022-09-14T17:34:13.756Z,12.60
2022-09-14T17:36:41.207Z,12.50
2022-09-14T17:39:12.262Z,12.40
2022-09-14T17:41:41.406Z,12.40
2022-09-14T17:44:12.700Z,12.40
2022-09-14T17:46:51.634Z,12.40
2022-09-14T17:49:23.834Z,12.50
2022-09-14T17:51:53.174Z,12.50
2022-09-14T17:54:20.893Z,12.50
2022-09-14T17:56:48.895Z,12.60
2022-09-14T17:59:21.103Z,12.50
2022-09-14T18:01:51.597Z,12.40
2022-09-14T18:04:19.386Z,12.40
2022-09-14T18:06:49.124Z,12.30
2022-09-14T18:09:19.268Z,12.20
2022-09-14T18:11:47.401Z,12.20
2022-09-14T18:14:15.375Z,12.10
2022-09-14T18:16:44.777Z,12.00
2022-09-14T18:19:12.290Z,11.90
2022-09-14T18:21:39.846Z,11.90
2022-09-14T18:24:08.422Z,11.80
2022-09-14T18:26:38.440Z,11.80
2022-09-14T18:29:05.854Z,11.90
2022-09-14T18:31:33.625Z,11.90
2022-09-14T18:34:01.151Z,11.90
2022-09-14T18:36:30.075Z,11.90
2022-09-14T18:38:58.629Z,11.90
2022-09-14T18:41:31.714Z,11.90
2022-09-14T18:44:00.310Z,11.90
2022-09-14T18:46:28.755Z,12.00
2022-09-14T18:48:58.399Z,11.90
2022-09-14T18:51:26.983Z,12.00
2022-09-14T18:53:59.108Z,12.00
2022-09-14T18:56:26.999Z,12.00
2022-09-14T18:58:54.185Z,12.00
2022-09-14T19:01:22.068Z,12.00
2022-09-14T19:03:50.390Z,12.00
2022-09-14T19:06:19.488Z,12.00
2022-09-14T19:08:47.348Z,12.00
2022-09-14T19:11:22.108Z,12.00
2022-09-14T19:13:55.462Z,11.90
2022-09-14T19:16:23.078Z,11.90
2022-09-14T19:18:50.746Z,11.80
2022-09-14T19:21:23.925Z,11.70
2022-09-14T19:24:00.837Z,11.60
2022-09-14T19:26:31.787Z,11.50
2022-09-14T19:29:03.751Z,11.40
2022-09-14T19:31:34.707Z,11.40
2022-09-14T19:34:03.738Z,11.40
2022-09-14T19:36:32.452Z,11.30
2022-09-14T19:39:03.278Z,11.30
2022-09-14T19:41:33.302Z,11.30
2022-09-14T19:44:02.092Z,11.30
2022-09-14T19:46:31.541Z,11.30
2022-09-14T19:48:59.198Z,11.20
2022-09-14T19:51:29.847Z,11.30
2022-09-14T19:53:59.763Z,11.20
2022-09-14T19:56:29.855Z,11.30
2022-09-14T19:58:59.309Z,11.20
2022-09-14T20:01:28.459Z,11.20
2022-09-14T20:03:56.420Z,11.10
2022-09-14T20:06:31.830Z,11.00
2022-09-14T20:09:09.957Z,10.90
2022-09-14T20:11:40.168Z,10.90
2022-09-14T20:14:10.277Z,10.90
2022-09-14T20:16:40.128Z,10.90
2022-09-14T20:19:10.396Z,10.80
2022-09-14T20:21:39.475Z,10.80
2022-09-14T20:24:17.045Z,10.70
2022-09-14T20:26:47.572Z,10.60
2022-09-14T20:29:17.900Z,10.60
2022-09-14T20:31:46.143Z,10.60
2022-09-14T20:34:15.978Z,10.60
2022-09-14T20:36:43.905Z,10.50
2022-09-14T20:39:11.861Z,10.40
2022-09-14T20:41:39.494Z,10.30
2022-09-14T20:44:07.398Z,10.20
2022-09-14T20:46:39.415Z,10.20
2022-09-14T20:49:12.882Z,10.10
2022-09-14T20:51:41.247Z,10.00
2022-09-14T20:54:12.343Z,9.90
2022-09-14T20:56:40.297Z,9.80
2022-09-14T20:59:12.163Z,9.80
2022-09-14T21:01:42.101Z,9.70
2022-09-14T21:04:11.938Z,9.70
2022-09-14T21:06:50.225Z,9.70
2022-09-14T21:09:18.432Z,9.70
2022-09-14T21:11:46.721Z,9.60
2022-09-14T21:14:15.727Z,9.60
2022-09-14T21:16:46.398Z,9.60
2022-09-14T21:19:19.982Z,9.50
2022-09-14T21:21:48.577Z,9.40
2022-09-14T21:24:17.639Z,9.40
2022-09-14T21:26:45.583Z,9.40
2022-09-14T21:29:16.581Z,9.40
2022-09-14T21:31:44.283Z,9.40
2022-09-14T21:34:12.182Z,9.40
2022-09-14T21:36:41.733Z,9.40
2022-09-14T21:39:19.349Z,9.40
2022-09-14T21:41:46.565Z,9.40
2022-09-14T21:44:14.117Z,9.30
2022-09-14T21:46:42.363Z,9.30
2022-09-14T21:49:17.385Z,9.30
2022-09-14T21:51:44.989Z,9.30
2022-09-14T21:54:13.524Z,9.20
2022-09-14T21:56:43.123Z,9.20
2022-09-14T21:59:17.955Z,9.20
2022-09-14T22:01:45.902Z,9.20
2022-09-14T22:04:18.913Z,9.20
2022-09-14T22:06:47.183Z,9.10
2022-09-14T22:09:17.496Z,9.10
2022-09-14T22:11:45.564Z,9.10
2022-09-14T22:14:19.081Z,9.10
2022-09-14T22:16:48.039Z,9.20
2022-09-14T22:19:19.484Z,9.20
2022-09-14T22:21:46.991Z,9.20
2022-09-14T22:24:17.536Z,9.30
2022-09-14T22:26:46.508Z,9.40
2022-09-14T22:29:16.825Z,9.30
2022-09-14T22:31:46.155Z,9.30
2022-09-14T22:34:14.565Z,9.40
2022-09-14T22:36:42.385Z,9.40
2022-09-14T22:39:11.106Z,9.40
2022-09-14T22:41:39.215Z,9.40
2022-09-14T22:44:07.592Z,9.40
2022-09-14T22:46:35.918Z,9.30
2022-09-14T22:49:03.861Z,9.30
2022-09-14T22:51:31.455Z,9.20
2022-09-14T22:53:58.907Z,9.20
2022-09-14T22:56:32.359Z,9.20
2022-09-14T22:59:00.884Z,9.20
2022-09-14T23:01:32.844Z,9.10
2022-09-14T23:04:03.645Z,9.00
2022-09-14T23:06:36.401Z,9.00
2022-09-14T23:09:04.629Z,9.00
2022-09-14T23:11:32.047Z,9.00
2022-09-14T23:13:59.761Z,9.00
2022-09-14T23:16:29.934Z,9.00
2022-09-14T23:18:59.923Z,9.00
2022-09-14T23:21:33.121Z,8.90
2022-09-14T23:24:10.147Z,8.90
2022-09-14T23:26:40.034Z,8.80
2022-09-14T23:29:14.999Z,8.80
2022-09-14T23:31:44.491Z,8.80
2022-09-14T23:34:16.160Z,8.70
2022-09-14T23:36:45.043Z,8.60
2022-09-14T23:39:12.448Z,8.60
2022-09-14T23:41:46.690Z,8.50
2022-09-14T23:44:15.829Z,8.50
2022-09-14T23:46:42.926Z,8.50
2022-09-14T23:49:16.901Z,8.50
2022-09-14T23:51:45.008Z,8.40
2022-09-14T23:54:14.892Z,8.40
2022-09-14T23:56:45.952Z,8.50
2022-09-14T23:59:15.461Z,8.40
